createdAt,value
2022-08-04T00:02:18.961Z,64.75
2022-08-04T00:04:52.948Z,65.38
2022-08-04T00:07:44.151Z,65.63
2022-08-04T00:10:13.709Z,64.95
2022-08-04T00:12:45.442Z,65.05
2022-08-04T00:15:16.482Z,66.33
2022-08-04T00:17:51.017Z,66.11
2022-08-04T00:20:19.710Z,65.69
2022-08-04T00:22:48.520Z,66.27
2022-08-04T00:25:15.311Z,66.18
2022-08-04T00:27:41.763Z,66.59
2022-08-04T00:30:08.831Z,67.34
2022-08-04T00:32:35.413Z,67.26
2022-08-04T00:35:02.013Z,66.77
2022-08-04T00:37:28.982Z,67.18
2022-08-04T00:39:56.651Z,67.35
2022-08-04T00:42:49.501Z,67.69
2022-08-04T00:45:28.715Z,67.98
2022-08-04T00:48:01.904Z,68.42
2022-08-04T00:51:13.189Z,68.83
2022-08-04T00:54:09.639Z,68.81
2022-08-04T00:56:48.139Z,69.04
2022-08-04T00:59:46.940Z,68.65
2022-08-04T01:02:50.223Z,68.43
2022-08-04T01:05:37.901Z,68.32
2022-08-04T01:08:25.892Z,68.60
2022-08-04T01:11:33.469Z,69.25
2022-08-04T01:14:44.420Z,69.17
2022-08-04T01:17:18.323Z,68.94
2022-08-04T01:20:08.541Z,69.18
2022-08-04T01:22:34.902Z,69.86
2022-08-04T01:25:16.643Z,69.59
2022-08-04T01:28:06.425Z,70.21
2022-08-04T01:30:33.640Z,70.16
2022-08-04T01:33:06.640Z,70.68
2022-08-04T01:35:49.191Z,70.98
2022-08-04T01:38:33.754Z,71.14
2022-08-04T01:41:04.479Z,71.24
2022-08-04T01:43:33.801Z,71.24
2022-08-04T01:46:07.923Z,70.82
2022-08-04T01:48:38.366Z,70.74
2022-08-04T01:51:08.043Z,71.52
2022-08-04T01:53:40.549Z,71.53
2022-08-04T01:56:12.251Z,70.93
2022-08-04T01:58:40.457Z,71.04
2022-08-04T02:01:09.888Z,70.84
2022-08-04T02:04:20.079Z,70.46
2022-08-04T02:06:51.665Z,71.46
2022-08-04T02:09:24.727Z,70.91
2022-08-04T02:12:40.450Z,71.71
2022-08-04T02:15:29.105Z,72.03
2022-08-04T02:18:07.421Z,72.40
2022-08-04T02:20:38.893Z,72.61
2022-08-04T02:23:14.345Z,73.11
2022-08-04T02:25:46.973Z,73.04
2022-08-04T02:28:22.006Z,73.07
2022-08-04T02:31:06.599Z,73.36
2022-08-04T02:33:38.429Z,73.45
2022-08-04T02:36:11.437Z,74.30
2022-08-04T02:38:43.579Z,73.06
2022-08-04T02:41:11.247Z,73.97
2022-08-04T02:43:50.832Z,73.99
2022-08-04T02:46:21.217Z,74.47
2022-08-04T02:48:50.219Z,74.57
2022-08-04T02:51:20.253Z,74.90
2022-08-04T02:53:49.787Z,76.23
2022-08-04T02:56:19.466Z,75.78
2022-08-04T02:58:51.501Z,74.90
2022-08-04T03:01:18.364Z,74.69
2022-08-04T03:03:51.562Z,74.84
2022-08-04T03:06:40.852Z,74.35
2022-08-04T03:09:26.041Z,74.22
2022-08-04T03:12:17.275Z,74.09
2022-08-04T03:15:04.375Z,74.69
2022-08-04T03:17:53.137Z,75.30
2022-08-04T03:20:22.677Z,76.19
2022-08-04T03:23:12.074Z,76.35
2022-08-04T03:25:56.779Z,76.34
2022-08-04T03:28:42.807Z,76.71
2022-08-04T03:31:27.514Z,75.62
2022-08-04T03:34:12.378Z,75.52
2022-08-04T03:37:00.126Z,75.52
2022-08-04T03:39:34.827Z,76.37
2022-08-04T03:42:27.540Z,76.12
2022-08-04T03:45:23.585Z,77.08
2022-08-04T03:48:04.191Z,77.00
2022-08-04T03:51:35.055Z,77.22
2022-08-04T03:54:14.760Z,77.56
2022-08-04T03:57:07.585Z,77.74
2022-08-04T03:59:43.175Z,77.56
2022-08-04T04:02:31.051Z,77.60
2022-08-04T04:05:10.201Z,77.17
2022-08-04T04:08:27.314Z,77.73
2022-08-04T04:11:19.947Z,77.69
2022-08-04T04:14:07.230Z,77.10
2022-08-04T04:16:45.809Z,77.74
2022-08-04T04:19:36.134Z,77.63
2022-08-04T04:22:22.213Z,78.02
2022-08-04T04:24:59.649Z,77.85
2022-08-04T04:27:52.034Z,78.43
2022-08-04T04:30:31.573Z,78.33
2022-08-04T04:33:22.228Z,77.89
2022-08-04T04:36:07.607Z,76.26
2022-08-04T04:39:15.444Z,77.80
2022-08-04T04:41:53.786Z,77.45
2022-08-04T04:44:50.210Z,77.23
2022-08-04T04:47:43.340Z,77.37
2022-08-04T04:50:45.103Z,76.77
2022-08-04T04:53:20.512Z,76.94
2022-08-04T04:56:05.577Z,75.17
2022-08-04T04:58:35.196Z,73.42
2022-08-04T05:01:30.915Z,70.54
2022-08-04T05:04:18.621Z,68.61
2022-08-04T05:07:03.704Z,67.13
2022-08-04T05:09:57.954Z,64.88
2022-08-04T05:14:35.581Z,63.96
2022-08-04T05:15:56.011Z,64.00
2022-08-04T05:18:27.055Z,64.41
2022-08-04T05:20:57.647Z,62.97
2022-08-04T05:23:29.383Z,62.73
2022-08-04T05:26:00.476Z,61.46
2022-08-04T05:28:38.365Z,60.69
2022-08-04T05:31:13.831Z,59.59
2022-08-04T05:33:47.190Z,58.83
2022-08-04T05:36:35.342Z,59.01
2022-08-04T05:39:10.424Z,58.93
2022-08-04T05:41:45.836Z,60.37
2022-08-04T05:44:19.832Z,59.97
2022-08-04T05:46:53.691Z,59.80
2022-08-04T05:49:23.389Z,60.20
2022-08-04T05:51:51.825Z,59.49
2022-08-04T05:54:19.110Z,59.12
2022-08-04T05:56:46.605Z,57.99
2022-08-04T05:59:14.568Z,57.73
2022-08-04T06:01:56.227Z,58.13
2022-08-04T06:04:31.025Z,57.54
2022-08-04T06:06:57.615Z,56.26
2022-08-04T06:09:24.216Z,56.51
2022-08-04T06:12:00.319Z,56.13
2022-08-04T06:14:35.737Z,54.93
2022-08-04T06:17:05.808Z,55.18
2022-08-04T06:20:03.139Z,54.84
2022-08-04T06:22:43.020Z,53.49
2022-08-04T06:25:12.367Z,54.33
2022-08-04T06:27:40.692Z,54.63
2022-08-04T06:30:11.627Z,55.73
2022-08-04T06:32:47.677Z,54.39
2022-08-04T06:35:18.172Z,54.44
2022-08-04T06:37:47.421Z,54.67
2022-08-04T06:40:31.840Z,55.62
2022-08-04T06:43:01.325Z,54.70
2022-08-04T06:45:29.308Z,54.82
2022-08-04T06:47:57.140Z,55.28
2022-08-04T06:51:26.464Z,56.15
2022-08-04T06:53:11.619Z,56.76
2022-08-04T06:55:40.504Z,54.98
2022-08-04T06:58:07.663Z,55.44
2022-08-04T07:00:36.753Z,54.38
2022-08-04T07:03:03.753Z,55.30
2022-08-04T07:05:31.370Z,54.02
2022-08-04T07:07:58.949Z,54.26
2022-08-04T07:10:27.863Z,52.24
2022-08-04T07:12:56.629Z,52.47
2022-08-04T07:15:24.501Z,52.51
2022-08-04T07:17:52.578Z,50.90
2022-08-04T07:20:33.004Z,52.10
2022-08-04T07:23:06.152Z,52.14
2022-08-04T07:26:10.829Z,52.38
2022-08-04T07:28:24.792Z,52.93
2022-08-04T07:30:53.270Z,52.98
2022-08-04T07:33:20.906Z,53.07
2022-08-04T07:36:04.885Z,51.71
2022-08-04T07:38:37.492Z,51.45
2022-08-04T07:41:35.509Z,51.49
2022-08-04T07:43:54.744Z,52.83
2022-08-04T07:46:21.355Z,52.53
2022-08-04T07:48:48.341Z,52.74
2022-08-04T07:51:16.310Z,51.97
2022-08-04T07:53:55.283Z,52.14
2022-08-04T07:56:22.982Z,50.90
2022-08-04T07:58:49.826Z,50.46
2022-08-04T08:01:17.260Z,49.46
2022-08-04T08:03:43.987Z,49.39
2022-08-04T08:06:30.735Z,49.30
2022-08-04T08:08:58.365Z,48.42
2022-08-04T08:11:25.207Z,47.53
2022-08-04T08:14:11.915Z,47.66
2022-08-04T08:16:38.940Z,47.20
2022-08-04T08:19:06.238Z,46.59
2022-08-04T08:21:34.614Z,46.42
2022-08-04T08:24:21.114Z,45.50
2022-08-04T08:26:47.662Z,46.35
2022-08-04T08:29:16.052Z,46.11
2022-08-04T08:31:57.030Z,45.12
2022-08-04T08:34:28.184Z,44.56
2022-08-04T08:37:30.361Z,44.57
2022-08-04T08:40:15.843Z,44.02
2022-08-04T08:44:06.348Z,43.97
2022-08-04T08:46:45.268Z,42.82
2022-08-04T08:50:00.395Z,43.57
2022-08-04T08:52:56.271Z,43.32
2022-08-04T08:55:53.599Z,41.92
2022-08-04T08:58:20.060Z,42.23
2022-08-04T09:01:25.321Z,42.32
2022-08-04T09:04:32.212Z,41.46
2022-08-04T09:07:13.785Z,42.24
2022-08-04T09:10:01.510Z,42.25
2022-08-04T09:12:47.349Z,42.30
2022-08-04T09:15:28.994Z,41.72
2022-08-04T09:18:18.276Z,40.14
2022-08-04T09:20:50.113Z,40.18
2022-08-04T09:23:24.255Z,38.84
2022-08-04T09:26:08.905Z,39.21
2022-08-04T09:28:59.215Z,39.23
2022-08-04T09:31:51.546Z,39.59
2022-08-04T09:34:38.178Z,39.41
2022-08-04T09:37:14.215Z,37.55
2022-08-04T09:40:02.499Z,36.77
2022-08-04T09:42:45.350Z,37.32
2022-08-04T09:45:42.548Z,35.93
2022-08-04T09:48:36.193Z,37.10
2022-08-04T09:51:12.326Z,35.42
2022-08-04T09:54:02.747Z,36.01
2022-08-04T09:56:53.950Z,36.05
2022-08-04T09:59:20.287Z,34.81
2022-08-04T10:01:58.870Z,34.71
2022-08-04T10:04:29.405Z,34.55
2022-08-04T10:07:24.074Z,35.70
2022-08-04T10:10:25.211Z,35.54
2022-08-04T10:12:57.712Z,35.25
2022-08-04T10:15:41.218Z,34.63
2022-08-04T10:18:32.637Z,34.89
2022-08-04T10:21:16.817Z,34.94
2022-08-04T10:24:35.648Z,33.80
2022-08-04T10:27:21.953Z,34.07
2022-08-04T10:29:49.058Z,33.44
2022-08-04T10:32:26.091Z,33.37
2022-08-04T10:35:07.708Z,33.01
2022-08-04T10:38:03.218Z,32.90
2022-08-04T10:40:52.022Z,32.54
2022-08-04T10:43:46.243Z,32.71
2022-08-04T10:46:21.527Z,31.71
2022-08-04T10:48:58.995Z,31.43
2022-08-04T10:51:58.111Z,32.22
2022-08-04T10:55:03.829Z,32.09
2022-08-04T10:57:36.854Z,31.43
2022-08-04T11:00:09.701Z,31.23
2022-08-04T11:02:51.008Z,30.75
2022-08-04T11:05:27.231Z,30.02
2022-08-04T11:08:01.831Z,30.54
2022-08-04T11:10:32.246Z,29.83
2022-08-04T11:13:05.002Z,29.80
2022-08-04T11:15:38.141Z,29.85
2022-08-04T11:18:16.158Z,29.58
2022-08-04T11:20:54.398Z,29.59
2022-08-04T11:23:27.926Z,30.04
2022-08-04T11:26:05.665Z,29.91
2022-08-04T11:28:41.026Z,29.97
2022-08-04T11:31:13.005Z,29.47
2022-08-04T11:33:50.152Z,29.14
2022-08-04T11:36:28.748Z,28.90
2022-08-04T11:39:08.477Z,27.78
2022-08-04T11:41:46.935Z,27.90
2022-08-04T11:44:23.093Z,27.73
2022-08-04T11:46:53.496Z,27.71
2022-08-04T11:49:56.780Z,27.96
2022-08-04T11:52:26.129Z,27.48
2022-08-04T11:54:55.096Z,27.18
2022-08-04T11:57:25.628Z,27.02
2022-08-04T12:00:07.378Z,26.94
2022-08-04T12:03:01.371Z,26.74
2022-08-04T12:05:37.103Z,26.53
2022-08-04T12:08:28.839Z,25.58
2022-08-04T12:11:26.106Z,24.82
2022-08-04T12:14:54.045Z,24.75
2022-08-04T12:17:52.106Z,24.03
2022-08-04T12:20:32.088Z,24.74
2022-08-04T12:23:30.694Z,24.58
2022-08-04T12:26:03.771Z,24.48
2022-08-04T12:31:39.987Z,23.81
2022-08-04T12:34:33.666Z,23.36
2022-08-04T12:37:09.468Z,23.40
2022-08-04T12:40:27.940Z,23.64
2022-08-04T12:42:59.420Z,23.75
2022-08-04T12:45:27.186Z,23.82
2022-08-04T12:47:58.697Z,23.19
2022-08-04T12:50:25.567Z,23.26
2022-08-04T12:53:04.058Z,23.29
2022-08-04T12:55:35.219Z,23.42
2022-08-04T12:58:11.150Z,23.63
2022-08-04T13:00:41.717Z,22.88
2022-08-04T13:03:12.385Z,23.51
2022-08-04T13:05:43.619Z,23.46
2022-08-04T13:08:15.313Z,23.58
2022-08-04T13:10:46.821Z,23.79
2022-08-04T13:13:20.589Z,23.95
2022-08-04T13:16:05.597Z,24.20
2022-08-04T13:18:45.879Z,24.04
2022-08-04T13:21:20.381Z,24.70
2022-08-04T13:24:19.121Z,23.58
2022-08-04T13:26:43.882Z,24.43
2022-08-04T13:29:22.508Z,23.57
2022-08-04T13:32:10.544Z,23.56
2022-08-04T13:34:41.106Z,23.44
2022-08-04T13:37:20.970Z,22.95
2022-08-04T13:39:55.352Z,23.67
2022-08-04T13:42:23.948Z,23.31
2022-08-04T13:44:56.005Z,23.73
2022-08-04T13:47:30.370Z,23.69
2022-08-04T13:50:15.134Z,23.43
2022-08-04T13:52:43.213Z,23.36
2022-08-04T13:55:31.144Z,22.92
2022-08-04T13:58:23.198Z,22.30
2022-08-04T14:00:53.427Z,22.24
2022-08-04T14:03:53.544Z,22.09
2022-08-04T14:06:34.800Z,22.48
2022-08-04T14:09:08.577Z,21.75
2022-08-04T14:12:10.975Z,22.18
2022-08-04T14:14:44.125Z,21.39
2022-08-04T14:17:20.601Z,21.20
2022-08-04T14:19:50.045Z,21.92
2022-08-04T14:22:25.385Z,22.06
2022-08-04T14:25:08.956Z,22.39
2022-08-04T14:27:47.762Z,21.73
2022-08-04T14:30:35.671Z,21.83
2022-08-04T14:34:04.285Z,22.11
2022-08-04T14:35:59.492Z,21.76
2022-08-04T14:38:49.583Z,22.53
2022-08-04T14:41:19.313Z,21.98
2022-08-04T14:44:03.803Z,21.97
2022-08-04T14:46:36.284Z,22.03
2022-08-04T14:49:12.708Z,23.02
2022-08-04T14:51:53.006Z,22.65
2022-08-04T14:54:30.694Z,23.00
2022-08-04T14:57:06.116Z,22.43
2022-08-04T14:59:59.217Z,22.81
2022-08-04T15:02:29.750Z,22.55
2022-08-04T15:04:57.452Z,22.67
2022-08-04T15:07:23.937Z,23.08
2022-08-04T15:09:50.540Z,23.54
2022-08-04T15:12:17.308Z,22.84
2022-08-04T15:14:44.869Z,23.44
2022-08-04T15:17:29.980Z,23.64
2022-08-04T15:19:58.286Z,23.67
2022-08-04T15:22:25.031Z,23.67
2022-08-04T15:24:54.796Z,23.87
2022-08-04T15:27:27.193Z,24.50
2022-08-04T15:30:01.538Z,24.60
2022-08-04T15:32:32.339Z,24.16
2022-08-04T15:35:12.616Z,24.23
2022-08-04T15:38:16.261Z,24.15
2022-08-04T15:40:52.243Z,24.18
2022-08-04T15:43:27.651Z,25.81
2022-08-04T15:46:02.156Z,24.60
2022-08-04T15:48:46.482Z,23.88
2022-08-04T15:51:15.145Z,23.66
2022-08-04T15:54:02.610Z,24.32
2022-08-04T15:56:28.348Z,24.03
2022-08-04T15:58:56.592Z,23.88
2022-08-04T16:01:23.637Z,24.19
2022-08-04T16:03:58.475Z,24.20
2022-08-04T16:06:26.881Z,24.13
2022-08-04T16:09:01.668Z,24.41
2022-08-04T16:11:37.015Z,24.24
2022-08-04T16:14:07.513Z,24.21
2022-08-04T16:16:36.938Z,24.00
2022-08-04T16:19:13.647Z,23.64
2022-08-04T16:21:55.130Z,23.68
2022-08-04T16:24:30.611Z,23.61
2022-08-04T16:27:00.346Z,23.38
2022-08-04T16:29:39.137Z,23.80
2022-08-04T16:32:05.980Z,23.92
2022-08-04T16:34:49.989Z,23.60
2022-08-04T16:37:24.117Z,23.70
2022-08-04T16:40:34.685Z,23.88
2022-08-04T16:43:10.139Z,24.06
2022-08-04T16:45:51.175Z,24.02
2022-08-04T16:48:20.121Z,24.19
2022-08-04T16:50:48.578Z,24.88
2022-08-04T16:53:53.172Z,25.57
2022-08-04T16:56:05.060Z,25.18
2022-08-04T16:58:36.757Z,25.09
2022-08-04T17:01:21.954Z,25.56
2022-08-04T17:04:04.755Z,25.56
2022-08-04T17:06:36.402Z,26.07
2022-08-04T17:09:10.214Z,26.08
2022-08-04T17:11:36.740Z,26.75
2022-08-04T17:14:05.908Z,26.41
2022-08-04T17:16:35.253Z,26.48
2022-08-04T17:19:02.440Z,26.46
2022-08-04T17:21:31.762Z,27.11
2022-08-04T17:24:14.954Z,26.96
2022-08-04T17:26:54.454Z,26.82
2022-08-04T17:29:44.137Z,27.12
2022-08-04T17:32:21.189Z,27.31
2022-08-04T17:34:50.229Z,27.03
2022-08-04T17:37:53.222Z,27.47
2022-08-04T17:40:10.203Z,27.64
2022-08-04T17:42:39.477Z,27.46
2022-08-04T17:48:24.732Z,27.21
2022-08-04T17:50:51.780Z,27.42
2022-08-04T17:53:52.860Z,27.75
2022-08-04T17:56:33.995Z,27.96
2022-08-04T17:59:12.608Z,28.12
2022-08-04T18:01:52.201Z,28.21
2022-08-04T18:05:06.023Z,28.64
2022-08-04T18:08:35.530Z,28.77
2022-08-04T18:10:51.868Z,28.48
2022-08-04T18:13:22.983Z,29.12
2022-08-04T18:15:50.999Z,28.98
2022-08-04T18:18:23.775Z,29.32
2022-08-04T18:20:50.538Z,29.31
2022-08-04T18:23:17.072Z,30.41
2022-08-04T18:25:52.624Z,29.96
2022-08-04T18:28:26.419Z,30.41
2022-08-04T18:30:55.440Z,30.84
2022-08-04T18:33:39.750Z,29.90
2022-08-04T18:36:32.707Z,31.75
2022-08-04T18:38:58.496Z,32.41
2022-08-04T18:41:26.577Z,32.71
2022-08-04T18:43:55.965Z,32.90
2022-08-04T18:46:26.881Z,33.12
2022-08-04T18:48:54.316Z,34.09
2022-08-04T18:51:25.153Z,34.33
2022-08-04T18:53:59.918Z,35.24
2022-08-04T18:56:32.407Z,35.74
2022-08-04T18:59:01.827Z,36.56
2022-08-04T19:02:13.434Z,36.68
2022-08-04T19:04:33.455Z,37.05
2022-08-04T19:07:28.698Z,37.31
2022-08-04T19:09:53.776Z,37.17
2022-08-04T19:12:27.133Z,37.47
2022-08-04T19:14:57.827Z,38.25
2022-08-04T19:17:53.569Z,35.63
2022-08-04T19:20:24.295Z,35.08
2022-08-04T19:24:11.101Z,34.96
2022-08-04T19:26:01.988Z,35.46
2022-08-04T19:28:28.095Z,35.34
2022-08-04T19:30:58.676Z,35.90
2022-08-04T19:33:25.636Z,36.04
2022-08-04T19:36:12.018Z,36.49
2022-08-04T19:38:38.885Z,36.60
2022-08-04T19:41:05.817Z,36.89
2022-08-04T19:43:43.904Z,37.70
2022-08-04T19:46:12.267Z,37.06
2022-08-04T19:48:39.510Z,37.79
2022-08-04T19:51:06.029Z,39.21
2022-08-04T19:53:37.260Z,39.94
2022-08-04T19:56:05.026Z,40.09
2022-08-04T19:58:31.464Z,40.89
2022-08-04T20:00:57.985Z,40.84
2022-08-04T20:04:09.720Z,40.83
2022-08-04T20:06:10.997Z,42.13
2022-08-04T20:08:37.470Z,41.38
2022-08-04T20:11:14.787Z,42.17
2022-08-04T20:13:42.486Z,41.86
2022-08-04T20:16:28.947Z,42.48
2022-08-04T20:19:02.394Z,41.61
2022-08-04T20:21:54.115Z,41.19
2022-08-04T20:24:40.743Z,41.50
2022-08-04T20:27:09.055Z,41.87
2022-08-04T20:29:43.471Z,41.60
2022-08-04T20:32:15.441Z,41.31
2022-08-04T20:34:42.006Z,41.58
2022-08-04T20:37:10.236Z,42.95
2022-08-04T20:39:41.875Z,42.99
2022-08-04T20:42:11.476Z,43.48
2022-08-04T20:44:38.868Z,44.18
2022-08-04T20:47:13.233Z,44.04
2022-08-04T20:49:40.477Z,44.25
2022-08-04T20:52:16.353Z,44.06
2022-08-04T20:54:48.596Z,44.82
2022-08-04T20:57:16.713Z,45.87
2022-08-04T20:59:59.401Z,46.12
2022-08-04T21:02:26.973Z,47.48
2022-08-04T21:04:53.696Z,47.50
2022-08-04T21:07:21.674Z,48.09
2022-08-04T21:09:49.982Z,48.36
2022-08-04T21:12:28.464Z,48.49
2022-08-04T21:14:57.293Z,49.11
2022-08-04T21:17:50.704Z,48.19
2022-08-04T21:20:12.880Z,48.77
2022-08-04T21:22:39.592Z,49.15
2022-08-04T21:25:07.479Z,49.31
2022-08-04T21:27:42.287Z,49.05
2022-08-04T21:30:24.196Z,49.80
2022-08-04T21:32:52.868Z,48.86
2022-08-04T21:35:19.589Z,49.34
2022-08-04T21:37:58.255Z,49.55
2022-08-04T21:40:36.814Z,49.96
2022-08-04T21:43:05.556Z,50.08
2022-08-04T21:45:36.260Z,49.68
2022-08-04T21:48:03.156Z,50.00
2022-08-04T21:50:31.112Z,50.15
2022-08-04T21:52:57.673Z,49.59
2022-08-04T21:56:05.158Z,49.82
2022-08-04T21:58:12.389Z,49.92
2022-08-04T22:00:40.495Z,50.54
2022-08-04T22:03:18.685Z,51.61
2022-08-04T22:05:55.367Z,51.66
2022-08-04T22:08:23.642Z,52.42
2022-08-04T22:10:55.999Z,53.15
2022-08-04T22:13:24.587Z,52.55
2022-08-04T22:16:11.040Z,53.51
2022-08-04T22:18:37.471Z,54.07
2022-08-04T22:21:11.939Z,54.11
2022-08-04T22:23:45.202Z,54.05
2022-08-04T22:26:26.880Z,54.29
2022-08-04T22:28:54.503Z,54.38
2022-08-04T22:31:24.078Z,54.44
2022-08-04T22:33:54.782Z,54.31
2022-08-04T22:36:22.705Z,54.03
2022-08-04T22:39:01.597Z,54.03
2022-08-04T22:41:34.176Z,54.02
2022-08-04T22:44:16.021Z,54.11
2022-08-04T22:46:42.958Z,55.55
2022-08-04T22:49:09.382Z,54.48
2022-08-04T22:51:36.032Z,55.52
2022-08-04T22:54:02.524Z,54.64
2022-08-04T22:56:39.291Z,55.77
2022-08-04T22:59:09.981Z,56.19
2022-08-04T23:01:59.755Z,56.73
2022-08-04T23:04:24.779Z,57.57
2022-08-04T23:06:52.757Z,58.11
2022-08-04T23:09:19.168Z,58.89
2022-08-04T23:11:50.541Z,58.76
2022-08-04T23:14:25.122Z,60.00
2022-08-04T23:16:52.764Z,59.91
2022-08-04T23:19:19.801Z,62.96
2022-08-04T23:22:01.883Z,62.82
2022-08-04T23:24:30.031Z,61.75
2022-08-04T23:26:57.579Z,61.56
2022-08-04T23:29:24.498Z,62.39
2022-08-04T23:31:59.181Z,63.53
2022-08-04T23:34:26.618Z,63.82
2022-08-04T23:36:55.818Z,65.33
2022-08-04T23:39:25.617Z,65.68
2022-08-04T23:42:15.125Z,65.56
2022-08-04T23:44:48.443Z,65.16
2022-08-04T23:48:16.140Z,65.45
2022-08-04T23:50:02.081Z,64.88
2022-08-04T23:52:30.262Z,65.76
2022-08-04T23:55:00.979Z,66.05
2022-08-04T23:57:31.215Z,67.27
